createdAt,value
2023-05-08T00:03:31.600Z,10.88
2023-05-08T00:08:34.804Z,10.98
2023-05-08T00:13:37.447Z,8.77
2023-05-08T00:18:40.608Z,10.32
2023-05-08T00:23:44.850Z,10.07
2023-05-08T00:28:48.205Z,7.65
2023-05-08T00:33:50.908Z,8.52
2023-05-08T00:38:54.519Z,10.85
2023-05-08T00:43:57.486Z,8.55
2023-05-08T00:49:00.665Z,9.75
2023-05-08T00:54:04.069Z,9.80
2023-05-08T00:59:11.856Z,11.77
2023-05-08T01:04:14.741Z,11.15
2023-05-08T01:09:17.447Z,14.35
2023-05-08T01:14:37.628Z,14.50
2023-05-08T01:19:55.866Z,11.35
2023-05-08T01:25:35.767Z,10.35
2023-05-08T01:31:02.011Z,9.88
2023-05-08T01:36:29.995Z,17.52
2023-05-08T01:41:34.573Z,16.63
2023-05-08T01:51:45.057Z,11.07
2023-05-08T01:56:49.341Z,9.57
2023-05-08T02:01:57.003Z,13.88
2023-05-08T02:07:00.347Z,15.35
2023-05-08T02:12:07.101Z,15.50
2023-05-08T02:17:10.603Z,13.63
2023-05-08T02:22:14.121Z,16.23
2023-05-08T02:27:16.989Z,12.77
2023-05-08T02:32:21.247Z,8.18
2023-05-08T02:37:26.344Z,11.10
2023-05-08T02:42:29.152Z,13.85
2023-05-08T02:47:46.935Z,10.45
2023-05-08T02:52:58.470Z,8.10
2023-05-08T02:58:04.870Z,8.63
2023-05-08T03:03:29.907Z,11.77
2023-05-08T03:08:34.892Z,10.25
2023-05-08T03:13:40.438Z,9.55
2023-05-08T03:18:50.099Z,11.75
2023-05-08T03:23:54.797Z,9.95
2023-05-08T03:28:58.270Z,15.80
2023-05-08T03:34:08.992Z,11.23
2023-05-08T03:39:12.258Z,13.07
2023-05-08T03:44:18.248Z,17.50
2023-05-08T03:49:24.116Z,18.10
2023-05-08T03:54:28.640Z,11.02
2023-05-08T03:59:56.428Z,13.60
2023-05-08T04:05:14.230Z,12.27
2023-05-08T04:10:26.150Z,11.73
2023-05-08T04:15:34.723Z,13.38
2023-05-08T04:20:40.714Z,11.68
2023-05-08T04:25:45.289Z,11.43
2023-05-08T04:30:49.509Z,11.60
2023-05-08T04:35:52.468Z,11.77
2023-05-08T04:40:55.464Z,14.20
2023-05-08T04:45:58.916Z,11.38
2023-05-08T04:51:01.857Z,18.02
2023-05-08T04:56:05.079Z,17.42
2023-05-08T05:01:09.495Z,22.08
2023-05-08T05:06:12.319Z,22.20
2023-05-08T05:11:15.270Z,23.52
2023-05-08T05:16:37.269Z,22.50
2023-05-08T05:21:41.224Z,25.05
2023-05-08T05:26:44.350Z,28.13
2023-05-08T05:31:47.332Z,34.17
2023-05-08T05:36:50.555Z,33.03
2023-05-08T05:41:53.390Z,34.58
2023-05-08T05:46:57.544Z,37.67
2023-05-08T05:52:01.249Z,32.63
2023-05-08T05:57:05.071Z,34.35
2023-05-08T06:02:10.584Z,36.83
2023-05-08T06:07:14.765Z,36.35
2023-05-08T06:12:20.811Z,36.45
2023-05-08T06:17:24.015Z,37.92
2023-05-08T06:22:29.359Z,37.83
2023-05-08T06:27:32.126Z,37.05
2023-05-08T06:32:34.835Z,37.35
2023-05-08T06:37:39.564Z,36.17
2023-05-08T06:42:43.534Z,39.22
2023-05-08T06:47:47.764Z,40.67
2023-05-08T06:52:51.076Z,41.77
2023-05-08T06:57:55.191Z,43.20
2023-05-08T07:02:57.874Z,41.35
2023-05-08T07:08:02.010Z,39.20
2023-05-08T07:13:05.787Z,41.60
2023-05-08T07:18:08.642Z,36.90
2023-05-08T07:23:11.355Z,34.92
2023-05-08T07:28:18.058Z,31.67
2023-05-08T07:33:22.743Z,34.33
2023-05-08T07:38:25.606Z,32.00
2023-05-08T07:43:28.373Z,33.03
2023-05-08T07:48:31.231Z,30.23
2023-05-08T07:53:34.069Z,27.02
2023-05-08T07:58:38.435Z,28.60
2023-05-08T08:03:42.208Z,28.98
2023-05-08T08:08:46.181Z,29.42
2023-05-08T08:13:48.878Z,28.52
2023-05-08T08:18:53.013Z,27.05
2023-05-08T08:23:55.820Z,30.80
2023-05-08T08:28:58.879Z,26.20
2023-05-08T08:34:01.571Z,30.73
2023-05-08T08:39:05.316Z,29.37
2023-05-08T08:44:08.330Z,31.53
2023-05-08T08:49:14.197Z,27.70
2023-05-08T08:54:21.459Z,25.80
2023-05-08T08:59:26.505Z,27.80
2023-05-08T09:04:31.960Z,28.80
2023-05-08T09:09:41.833Z,31.52
2023-05-08T09:14:44.613Z,26.23
2023-05-08T09:19:49.703Z,33.08
2023-05-08T09:25:00.619Z,32.22
2023-05-08T09:30:06.439Z,27.35
2023-05-08T09:35:11.350Z,33.22
2023-05-08T09:40:16.386Z,34.03
2023-05-08T09:45:31.233Z,31.35
2023-05-08T09:50:34.107Z,32.05
2023-05-08T09:55:49.209Z,28.57
2023-05-08T10:00:53.329Z,28.33
2023-05-08T10:06:13.484Z,36.42
2023-05-08T10:11:16.856Z,32.15
2023-05-08T10:16:21.578Z,30.05
2023-05-08T10:21:26.097Z,32.88
2023-05-08T10:26:32.484Z,31.33
2023-05-08T10:31:36.571Z,34.70
2023-05-08T10:36:45.601Z,31.75
2023-05-08T10:42:06.581Z,34.83
2023-05-08T10:47:45.914Z,33.90
2023-05-08T10:52:59.995Z,32.28
2023-05-08T10:58:11.714Z,27.55
2023-05-08T11:03:30.772Z,31.13
2023-05-08T11:08:50.406Z,27.02
2023-05-08T11:14:08.822Z,25.52
2023-05-08T11:19:27.141Z,25.83
2023-05-08T11:24:36.743Z,26.42
2023-05-08T11:29:40.038Z,28.08
2023-05-08T11:34:43.300Z,30.73
2023-05-08T11:39:46.996Z,29.15
2023-05-08T11:45:09.830Z,27.15
2023-05-08T11:50:13.515Z,29.58
2023-05-08T11:55:18.885Z,24.80
2023-05-08T12:00:22.863Z,24.42
2023-05-08T12:05:28.142Z,25.42
2023-05-08T12:10:35.118Z,29.70
2023-05-08T12:15:38.915Z,27.73
2023-05-08T12:20:41.662Z,34.50
2023-05-08T12:25:45.180Z,32.72
2023-05-08T12:30:49.701Z,32.63
2023-05-08T12:36:19.766Z,27.92
2023-05-08T12:41:49.000Z,33.65
2023-05-08T12:52:33.421Z,27.45
2023-05-08T12:58:05.546Z,34.08
2023-05-08T13:03:29.856Z,30.90
2023-05-08T13:08:34.197Z,29.27
2023-05-08T13:13:38.553Z,35.13
2023-05-08T13:18:41.243Z,31.30
2023-05-08T13:23:43.816Z,28.90
2023-05-08T13:28:46.600Z,33.90
2023-05-08T13:33:49.222Z,32.03
2023-05-08T13:38:54.740Z,28.25
2023-05-08T13:43:57.413Z,35.70
2023-05-08T13:49:00.390Z,30.00
2023-05-08T13:59:05.905Z,28.30
2023-05-08T14:09:11.894Z,27.52
2023-05-08T14:14:14.670Z,32.97
2023-05-08T14:19:18.131Z,29.63
2023-05-08T14:24:20.796Z,20.13
2023-05-08T14:29:24.535Z,21.45
2023-05-08T14:34:28.439Z,25.05
2023-05-08T14:39:31.584Z,30.35
2023-05-08T14:44:35.075Z,26.83
2023-05-08T14:49:39.147Z,23.77
2023-05-08T14:54:42.970Z,24.58
2023-05-08T14:59:54.880Z,22.15
2023-05-08T15:05:01.168Z,22.08
2023-05-08T15:15:07.663Z,25.20
2023-05-08T15:20:10.604Z,26.33
2023-05-08T15:25:13.609Z,27.13
2023-05-08T15:30:16.697Z,25.05
2023-05-08T15:35:19.411Z,27.05
2023-05-08T15:40:22.041Z,23.42
2023-05-08T15:45:27.312Z,25.48
2023-05-08T15:50:29.955Z,31.15
2023-05-08T15:55:32.509Z,26.23
2023-05-08T16:00:43.870Z,25.98
2023-05-08T16:05:48.382Z,26.98
2023-05-08T16:10:51.114Z,27.50
2023-05-08T16:15:53.935Z,34.45
2023-05-08T16:20:56.747Z,24.58
2023-05-08T16:25:59.511Z,29.20
2023-05-08T16:31:02.945Z,28.65
2023-05-08T16:36:06.006Z,25.98
2023-05-08T16:41:14.872Z,23.88
2023-05-08T16:46:23.344Z,26.00
2023-05-08T16:51:32.949Z,24.20
2023-05-08T16:56:35.619Z,25.00
2023-05-08T17:01:38.629Z,22.17
2023-05-08T17:06:41.599Z,25.15
2023-05-08T17:11:44.658Z,23.77
2023-05-08T17:16:47.733Z,30.15
2023-05-08T17:21:50.478Z,26.45
2023-05-08T17:26:53.204Z,29.75
2023-05-08T17:31:56.127Z,34.28
2023-05-08T17:36:58.976Z,33.78
2023-05-08T17:42:01.843Z,41.60
2023-05-08T17:47:04.910Z,29.45
2023-05-08T17:52:07.757Z,34.08
2023-05-08T17:57:10.519Z,41.77
2023-05-08T18:02:13.219Z,33.27
2023-05-08T18:07:15.895Z,35.63
2023-05-08T18:12:19.044Z,34.47
2023-05-08T18:17:22.835Z,32.47
2023-05-08T18:32:31.522Z,33.90
2023-05-08T18:37:34.248Z,25.42
2023-05-08T18:42:36.795Z,28.52
2023-05-08T18:47:39.427Z,28.20
2023-05-08T18:53:01.135Z,32.33
2023-05-08T18:58:06.094Z,28.87
2023-05-08T19:03:08.857Z,28.60
2023-05-08T19:08:13.244Z,31.45
2023-05-08T19:13:16.376Z,32.05
2023-05-08T19:18:19.478Z,34.00
2023-05-08T19:23:22.263Z,31.80
2023-05-08T19:28:24.910Z,35.47
2023-05-08T19:33:27.706Z,33.80
2023-05-08T19:38:30.446Z,28.63
2023-05-08T19:43:34.353Z,27.90
2023-05-08T19:53:41.127Z,28.92
2023-05-08T19:58:44.092Z,28.83
2023-05-08T20:03:47.120Z,32.80
2023-05-08T20:08:50.040Z,28.20
2023-05-08T20:13:54.743Z,29.63
2023-05-08T20:18:58.538Z,27.75
2023-05-08T20:24:03.705Z,28.90
2023-05-08T20:29:08.759Z,29.17
2023-05-08T20:34:11.400Z,27.45
2023-05-08T20:39:15.279Z,31.05
2023-05-08T20:44:19.787Z,32.05
2023-05-08T20:49:22.624Z,29.20
2023-05-08T20:54:25.433Z,28.95
2023-05-08T20:59:28.041Z,31.67
2023-05-08T21:04:31.139Z,29.13
2023-05-08T21:09:34.037Z,29.83
2023-05-08T21:14:37.499Z,31.50
2023-05-08T21:19:40.172Z,34.00
2023-05-08T21:24:44.024Z,29.17
2023-05-08T21:29:47.366Z,30.33
2023-05-08T21:34:50.094Z,32.50
2023-05-08T21:39:52.911Z,30.38
2023-05-08T21:44:55.857Z,34.88
2023-05-08T21:49:58.590Z,28.98
2023-05-08T21:55:01.372Z,28.63
2023-05-08T22:00:07.017Z,28.48
2023-05-08T22:05:10.078Z,32.90
2023-05-08T22:10:13.894Z,30.20
2023-05-08T22:15:29.216Z,31.73
2023-05-08T22:20:33.476Z,31.42
2023-05-08T22:25:36.340Z,29.53
2023-05-08T22:30:39.032Z,30.35
2023-05-08T22:35:42.268Z,32.65
2023-05-08T22:40:45.034Z,25.35
2023-05-08T22:45:48.214Z,25.92
2023-05-08T22:50:51.100Z,30.27
2023-05-08T22:55:53.860Z,28.60
2023-05-08T23:00:56.889Z,28.58
2023-05-08T23:11:04.901Z,38.08
2023-05-08T23:16:07.652Z,30.05
2023-05-08T23:21:10.631Z,35.05
2023-05-08T23:26:13.342Z,26.98
2023-05-08T23:31:17.851Z,28.95
2023-05-08T23:36:20.790Z,27.75
2023-05-08T23:41:24.204Z,28.23
2023-05-08T23:46:27.024Z,28.53
2023-05-08T23:51:29.639Z,30.33
2023-05-08T23:56:33.408Z,34.30
